createdAt,value
2019-05-22T00:00:58.233Z,99.90
2019-05-22T00:03:45.343Z,99.90
2019-05-22T00:06:17.723Z,99.90
2019-05-22T00:08:50.058Z,99.90
2019-05-22T00:11:22.624Z,99.90
2019-05-22T00:13:54.764Z,99.90
2019-05-22T00:16:26.830Z,99.90
2019-05-22T00:18:59.953Z,99.90
2019-05-22T00:21:33.420Z,99.90
2019-05-22T00:24:08.297Z,99.90
2019-05-22T00:26:40.450Z,99.90
2019-05-22T00:29:13.305Z,99.90
2019-05-22T00:31:43.746Z,99.90
2019-05-22T00:34:15.696Z,99.90
2019-05-22T00:36:47.678Z,99.90
2019-05-22T00:39:21.491Z,99.90
2019-05-22T00:41:52.842Z,99.90
2019-05-22T00:44:25.014Z,99.90
2019-05-22T00:46:57.704Z,99.90
2019-05-22T00:49:30.601Z,99.90
2019-05-22T00:52:07.183Z,99.90
2019-05-22T00:54:53.252Z,99.90
2019-05-22T00:57:34.573Z,99.90
2019-05-22T01:00:28.795Z,99.90
2019-05-22T01:03:01.632Z,99.90
2019-05-22T01:05:35.645Z,99.90
2019-05-22T01:08:08.622Z,99.90
2019-05-22T01:10:41.559Z,99.90
2019-05-22T01:13:15.227Z,99.90
2019-05-22T01:15:47.073Z,99.90
2019-05-22T01:18:19.169Z,99.90
2019-05-22T01:20:52.155Z,99.90
2019-05-22T01:23:24.820Z,99.90
2019-05-22T01:25:57.274Z,99.90
2019-05-22T01:28:33.157Z,99.90
2019-05-22T01:31:17.847Z,99.90
2019-05-22T01:34:00.463Z,99.90
2019-05-22T01:36:35.907Z,99.90
2019-05-22T01:39:36.172Z,99.90
2019-05-22T01:42:10.677Z,99.90
2019-05-22T01:44:59.714Z,99.90
2019-05-22T01:47:29.855Z,99.90
2019-05-22T01:50:01.438Z,99.90
2019-05-22T01:52:32.844Z,99.90
2019-05-22T01:55:05.761Z,99.90
2019-05-22T01:57:38.029Z,99.90
2019-05-22T02:00:09.699Z,99.90
2019-05-22T02:02:42.070Z,99.90
2019-05-22T02:05:15.059Z,99.90
2019-05-22T02:07:45.435Z,99.90
2019-05-22T02:10:24.443Z,99.90
2019-05-22T02:13:00.179Z,99.90
2019-05-22T02:15:35.219Z,99.90
2019-05-22T02:18:10.885Z,99.90
2019-05-22T02:20:42.426Z,99.90
2019-05-22T02:23:17.129Z,99.90
2019-05-22T02:25:50.633Z,99.90
2019-05-22T02:28:22.146Z,99.90
2019-05-22T02:30:54.158Z,99.90
2019-05-22T02:33:28.032Z,99.90
2019-05-22T02:36:00.386Z,99.90
2019-05-22T02:38:33.563Z,99.90
2019-05-22T02:41:08.199Z,99.90
2019-05-22T02:43:39.962Z,99.90
2019-05-22T02:46:12.250Z,99.90
2019-05-22T02:48:44.915Z,99.90
2019-05-22T02:51:15.458Z,99.90
2019-05-22T02:53:46.731Z,99.90
2019-05-22T02:56:18.267Z,99.90
2019-05-22T02:58:50.338Z,99.90
2019-05-22T03:01:22.184Z,99.90
2019-05-22T03:03:55.698Z,99.90
2019-05-22T03:06:28.073Z,99.90
2019-05-22T03:09:16.230Z,99.90
2019-05-22T03:11:55.545Z,99.90
2019-05-22T03:14:28.724Z,99.90
2019-05-22T03:17:02.651Z,99.90
2019-05-22T03:19:39.010Z,99.90
2019-05-22T03:22:28.479Z,99.90
2019-05-22T03:25:04.838Z,99.90
2019-05-22T03:27:43.010Z,99.90
2019-05-22T03:30:29.717Z,99.90
2019-05-22T03:33:04.559Z,99.90
2019-05-22T03:35:44.482Z,99.90
2019-05-22T03:38:18.481Z,99.90
2019-05-22T03:40:51.403Z,99.90
2019-05-22T03:43:24.366Z,99.90
2019-05-22T03:45:57.858Z,99.90
2019-05-22T03:48:33.735Z,99.90
2019-05-22T03:51:14.475Z,99.90
2019-05-22T03:53:46.707Z,99.90
2019-05-22T03:56:20.344Z,99.90
2019-05-22T03:58:53.106Z,99.90
2019-05-22T04:01:24.973Z,99.90
2019-05-22T04:03:56.723Z,99.90
2019-05-22T04:06:26.526Z,99.90
2019-05-22T04:09:00.167Z,99.90
2019-05-22T04:11:36.271Z,99.90
2019-05-22T04:14:08.786Z,99.90
2019-05-22T04:16:39.825Z,99.90
2019-05-22T04:19:12.111Z,99.90
2019-05-22T04:21:45.273Z,99.90
2019-05-22T04:24:16.860Z,99.90
2019-05-22T04:26:49.246Z,99.90
2019-05-22T04:29:20.805Z,99.90
2019-05-22T04:32:06.903Z,99.90
2019-05-22T04:34:37.642Z,99.90
2019-05-22T04:37:10.227Z,99.90
2019-05-22T04:39:43.635Z,99.90
2019-05-22T04:42:16.824Z,99.90
2019-05-22T04:45:12.472Z,99.90
2019-05-22T04:47:56.601Z,99.90
2019-05-22T04:50:28.968Z,99.90
2019-05-22T04:53:01.458Z,99.90
2019-05-22T04:55:33.935Z,99.90
2019-05-22T04:58:07.300Z,99.90
2019-05-22T05:00:38.298Z,99.90
2019-05-22T05:03:11.876Z,99.90
2019-05-22T05:05:44.066Z,99.90
2019-05-22T05:08:16.661Z,99.90
2019-05-22T05:10:50.864Z,99.90
2019-05-22T05:13:21.590Z,99.90
2019-05-22T05:15:52.325Z,99.90
2019-05-22T05:18:23.689Z,99.90
2019-05-22T05:20:54.838Z,99.90
2019-05-22T05:23:26.012Z,99.90
2019-05-22T05:25:56.691Z,99.90
2019-05-22T05:28:28.317Z,99.90
2019-05-22T05:30:59.828Z,99.90
2019-05-22T05:33:32.093Z,99.90
2019-05-22T05:36:05.569Z,99.90
2019-05-22T05:38:39.216Z,99.90
2019-05-22T05:41:12.198Z,99.90
2019-05-22T05:43:43.354Z,99.90
2019-05-22T05:46:13.914Z,99.90
2019-05-22T05:48:46.257Z,99.90
2019-05-22T05:51:29.193Z,99.90
2019-05-22T05:54:04.095Z,99.90
2019-05-22T05:56:37.072Z,99.90
2019-05-22T05:59:09.234Z,99.90
2019-05-22T06:01:46.368Z,99.90
2019-05-22T06:04:34.652Z,99.90
2019-05-22T06:07:19.271Z,99.90
2019-05-22T06:09:58.532Z,99.90
2019-05-22T06:12:30.901Z,99.90
2019-05-22T06:15:01.517Z,99.90
2019-05-22T06:18:07.604Z,99.90
2019-05-22T06:20:40.407Z,99.90
2019-05-22T06:23:50.253Z,99.90
2019-05-22T06:26:50.069Z,99.90
2019-05-22T06:29:27.758Z,99.90
2019-05-22T06:32:43.577Z,99.90
2019-05-22T06:35:17.581Z,99.90
2019-05-22T06:37:59.326Z,99.90
2019-05-22T06:40:30.518Z,99.90
2019-05-22T06:44:00.247Z,99.90
2019-05-22T06:46:48.204Z,99.90
2019-05-22T06:49:43.340Z,99.90
2019-05-22T06:52:16.516Z,99.90
2019-05-22T06:54:48.259Z,99.90
2019-05-22T06:57:48.696Z,99.90
2019-05-22T07:00:23.105Z,99.90
2019-05-22T07:02:54.395Z,99.90
2019-05-22T07:05:26.855Z,99.90
2019-05-22T07:07:58.416Z,99.90
2019-05-22T07:10:30.996Z,99.90
2019-05-22T07:13:02.149Z,99.90
2019-05-22T07:15:52.954Z,99.90
2019-05-22T07:18:32.245Z,99.90
2019-05-22T07:21:03.396Z,99.90
2019-05-22T07:23:36.850Z,99.90
2019-05-22T07:26:08.486Z,99.90
2019-05-22T07:28:39.964Z,99.90
2019-05-22T07:31:12.642Z,99.90
2019-05-22T07:33:44.907Z,99.90
2019-05-22T07:36:17.191Z,99.90
2019-05-22T07:38:49.005Z,99.90
2019-05-22T07:41:20.627Z,99.90
2019-05-22T07:43:51.970Z,99.90
2019-05-22T07:46:24.750Z,99.90
2019-05-22T07:48:56.148Z,99.90
2019-05-22T07:51:28.289Z,99.90
2019-05-22T07:53:58.970Z,99.90
2019-05-22T07:56:31.506Z,99.90
2019-05-22T07:59:03.901Z,99.90
2019-05-22T08:01:37.300Z,99.90
2019-05-22T08:04:09.283Z,99.90
2019-05-22T08:06:41.107Z,99.90
2019-05-22T08:09:14.709Z,99.90
2019-05-22T08:11:45.451Z,99.90
2019-05-22T08:14:19.262Z,99.90
2019-05-22T08:16:50.443Z,99.90
2019-05-22T08:19:21.802Z,99.90
2019-05-22T08:22:06.044Z,99.90
2019-05-22T08:24:25.218Z,99.90
2019-05-22T08:26:56.031Z,99.90
2019-05-22T08:29:26.566Z,99.90
2019-05-22T08:31:58.329Z,99.90
2019-05-22T08:34:28.799Z,99.90
2019-05-22T08:37:00.206Z,99.90
2019-05-22T08:39:32.330Z,99.90
2019-05-22T08:42:05.778Z,99.90
2019-05-22T08:44:38.201Z,99.90
2019-05-22T08:47:09.334Z,99.90
2019-05-22T08:49:40.177Z,99.90
2019-05-22T08:52:23.026Z,99.90
2019-05-22T08:54:49.094Z,99.90
2019-05-22T08:57:22.838Z,99.90
2019-05-22T08:59:53.433Z,99.90
2019-05-22T09:02:25.334Z,99.90
2019-05-22T09:04:56.966Z,99.90
2019-05-22T09:07:28.384Z,99.90
2019-05-22T09:10:00.055Z,99.90
2019-05-22T09:12:32.539Z,99.90
2019-05-22T09:15:04.178Z,99.90
2019-05-22T09:17:35.015Z,99.90
2019-05-22T09:20:07.375Z,99.90
2019-05-22T09:22:41.123Z,99.90
2019-05-22T09:25:14.567Z,99.90
2019-05-22T09:27:47.562Z,99.90
2019-05-22T09:30:20.729Z,99.90
2019-05-22T09:32:53.110Z,99.90
2019-05-22T09:35:23.743Z,99.90
2019-05-22T09:37:55.050Z,99.90
2019-05-22T09:40:25.701Z,99.90
2019-05-22T09:42:56.479Z,99.90
2019-05-22T09:45:27.216Z,99.90
2019-05-22T09:47:58.496Z,99.90
2019-05-22T09:50:29.919Z,99.90
2019-05-22T09:53:00.870Z,99.90
2019-05-22T09:55:32.002Z,99.90
2019-05-22T09:58:02.757Z,99.90
2019-05-22T10:00:34.178Z,99.90
2019-05-22T10:03:05.825Z,99.90
2019-05-22T10:05:35.831Z,99.90
2019-05-22T10:08:08.069Z,99.90
2019-05-22T10:10:39.943Z,99.90
2019-05-22T10:13:12.301Z,99.90
2019-05-22T10:15:43.200Z,99.90
2019-05-22T10:18:14.206Z,99.90
2019-05-22T10:20:46.161Z,99.90
2019-05-22T10:23:19.348Z,99.90
2019-05-22T10:25:50.091Z,99.90
2019-05-22T10:28:20.630Z,99.90
2019-05-22T10:30:54.433Z,99.90
2019-05-22T10:33:26.339Z,99.90
2019-05-22T10:35:57.347Z,99.90
2019-05-22T10:38:28.282Z,99.90
2019-05-22T10:41:00.463Z,99.90
2019-05-22T10:43:31.807Z,99.90
2019-05-22T10:46:02.441Z,99.90
2019-05-22T10:48:33.501Z,99.90
2019-05-22T10:51:04.641Z,99.90
2019-05-22T10:53:37.529Z,99.90
2019-05-22T10:56:08.804Z,99.90
2019-05-22T10:58:40.128Z,99.90
2019-05-22T11:01:11.281Z,99.90
2019-05-22T11:03:42.225Z,99.90
2019-05-22T11:06:12.936Z,99.90
2019-05-22T11:08:44.312Z,99.90
2019-05-22T11:11:18.928Z,99.90
2019-05-22T11:14:00.594Z,99.90
2019-05-22T11:16:24.109Z,99.90
2019-05-22T11:18:55.258Z,99.90
2019-05-22T11:21:26.609Z,99.90
2019-05-22T11:23:58.037Z,99.90
2019-05-22T11:26:29.030Z,99.90
2019-05-22T11:29:00.849Z,99.90
2019-05-22T11:31:32.227Z,99.90
2019-05-22T11:34:02.769Z,99.90
2019-05-22T11:36:33.487Z,99.90
2019-05-22T11:39:06.078Z,99.90
2019-05-22T11:41:38.045Z,99.90
2019-05-22T11:44:09.361Z,99.90
2019-05-22T11:46:41.104Z,99.90
2019-05-22T11:49:12.770Z,97.40
2019-05-22T11:51:43.876Z,94.10
2019-05-22T11:54:14.844Z,94.70
2019-05-22T11:56:45.558Z,95.20
2019-05-22T11:59:16.492Z,94.10
2019-05-22T12:01:47.642Z,93.80
2019-05-22T12:04:19.194Z,90.50
2019-05-22T12:06:53.724Z,90.00
2019-05-22T12:09:25.134Z,87.50
2019-05-22T12:11:55.862Z,82.00
2019-05-22T12:14:27.106Z,78.90
2019-05-22T12:16:59.221Z,78.60
2019-05-22T12:19:30.999Z,78.50
2019-05-22T12:22:02.102Z,76.50
2019-05-22T12:24:37.214Z,75.70
2019-05-22T12:27:07.592Z,73.90
2019-05-22T12:29:40.251Z,71.80
2019-05-22T12:32:11.809Z,67.50
2019-05-22T12:34:43.212Z,66.40
2019-05-22T12:37:15.146Z,66.20
2019-05-22T12:39:47.053Z,66.00
2019-05-22T12:42:18.324Z,64.10
2019-05-22T12:44:49.297Z,63.30
2019-05-22T12:47:21.275Z,61.20
2019-05-22T12:49:54.017Z,59.70
2019-05-22T12:52:26.161Z,58.50
2019-05-22T12:54:57.120Z,57.50
2019-05-22T12:57:29.282Z,57.80
2019-05-22T13:00:02.426Z,60.00
2019-05-22T13:02:36.646Z,59.40
2019-05-22T13:05:14.278Z,57.80
2019-05-22T13:07:42.891Z,58.40
2019-05-22T13:10:15.892Z,58.90
2019-05-22T13:12:46.311Z,58.50
2019-05-22T13:15:17.294Z,56.80
2019-05-22T13:17:49.932Z,57.60
2019-05-22T13:20:41.311Z,56.00
2019-05-22T13:22:59.369Z,55.60
2019-05-22T13:25:36.294Z,56.20
2019-05-22T13:28:10.652Z,55.60
2019-05-22T13:30:44.894Z,56.70
2019-05-22T13:33:19.458Z,56.50
2019-05-22T13:35:51.252Z,56.30
2019-05-22T13:38:22.879Z,57.20
2019-05-22T13:40:54.173Z,56.00
2019-05-22T13:43:25.592Z,55.80
2019-05-22T13:45:57.142Z,57.00
2019-05-22T13:48:29.108Z,57.60
2019-05-22T13:51:00.692Z,55.30
2019-05-22T13:53:32.226Z,55.40
2019-05-22T13:56:04.630Z,55.90
2019-05-22T13:58:36.775Z,58.00
2019-05-22T14:01:07.801Z,58.50
2019-05-22T14:03:40.647Z,57.60
2019-05-22T14:06:11.996Z,58.50
2019-05-22T14:08:43.618Z,59.80
2019-05-22T14:11:16.236Z,60.10
2019-05-22T14:13:48.466Z,59.10
2019-05-22T14:16:19.134Z,57.20
2019-05-22T14:18:50.267Z,57.60
2019-05-22T14:21:20.859Z,57.00
2019-05-22T14:23:52.559Z,56.20
2019-05-22T14:26:23.090Z,56.20
2019-05-22T14:28:53.989Z,57.00
2019-05-22T14:31:24.752Z,57.60
2019-05-22T14:33:56.896Z,56.60
2019-05-22T14:36:28.300Z,55.60
2019-05-22T14:39:00.810Z,55.80
2019-05-22T14:41:32.982Z,56.30
2019-05-22T14:44:03.773Z,57.30
2019-05-22T14:46:34.521Z,58.40
2019-05-22T14:49:06.729Z,56.80
2019-05-22T14:51:39.047Z,57.70
2019-05-22T14:54:11.243Z,58.60
2019-05-22T14:56:44.143Z,59.70
2019-05-22T14:59:14.765Z,59.80
2019-05-22T15:01:46.345Z,60.00
2019-05-22T15:04:17.394Z,61.20
2019-05-22T15:06:49.449Z,62.30
2019-05-22T15:09:21.414Z,61.30
2019-05-22T15:11:52.102Z,60.10
2019-05-22T15:14:23.242Z,60.90
2019-05-22T15:16:53.832Z,62.70
2019-05-22T15:19:25.037Z,63.50
2019-05-22T15:21:55.096Z,63.00
2019-05-22T15:24:27.690Z,61.60
2019-05-22T15:26:59.859Z,60.90
2019-05-22T15:29:31.428Z,60.90
2019-05-22T15:32:03.791Z,61.30
2019-05-22T15:34:34.937Z,62.00
2019-05-22T15:37:07.935Z,63.20
2019-05-22T15:39:38.735Z,63.50
2019-05-22T15:42:13.033Z,61.20
2019-05-22T15:44:45.703Z,63.50
2019-05-22T15:47:16.980Z,62.30
2019-05-22T15:49:48.020Z,63.20
2019-05-22T15:52:20.233Z,65.30
2019-05-22T15:54:53.216Z,66.50
2019-05-22T15:57:25.953Z,64.30
2019-05-22T15:59:58.074Z,65.90
2019-05-22T16:02:28.973Z,66.20
2019-05-22T16:05:02.805Z,65.00
2019-05-22T16:07:35.460Z,66.80
2019-05-22T16:10:06.851Z,66.00
2019-05-22T16:12:39.130Z,66.40
2019-05-22T16:15:12.393Z,66.10
2019-05-22T16:17:44.621Z,65.90
2019-05-22T16:20:16.035Z,64.70
2019-05-22T16:22:47.459Z,65.20
2019-05-22T16:25:21.478Z,65.70
2019-05-22T16:27:54.493Z,63.90
2019-05-22T16:30:27.717Z,63.90
2019-05-22T16:32:59.431Z,64.90
2019-05-22T16:35:31.895Z,66.00
2019-05-22T16:38:03.126Z,66.00
2019-05-22T16:40:35.537Z,66.20
2019-05-22T16:43:07.626Z,65.50
2019-05-22T16:45:40.347Z,65.60
2019-05-22T16:48:27.683Z,67.40
2019-05-22T16:50:47.236Z,68.50
2019-05-22T16:53:21.263Z,69.10
2019-05-22T16:55:54.102Z,68.80
2019-05-22T16:58:26.274Z,69.20
2019-05-22T17:00:57.616Z,69.90
2019-05-22T17:03:30.615Z,69.70
2019-05-22T17:06:02.628Z,70.20
2019-05-22T17:08:34.953Z,70.70
2019-05-22T17:11:07.040Z,71.10
2019-05-22T17:13:39.301Z,73.00
2019-05-22T17:16:11.008Z,70.80
2019-05-22T17:18:47.713Z,70.20
2019-05-22T17:21:15.409Z,71.20
2019-05-22T17:23:50.049Z,70.80
2019-05-22T17:26:21.809Z,71.30
2019-05-22T17:28:52.713Z,71.70
2019-05-22T17:31:26.330Z,71.40
2019-05-22T17:33:59.561Z,71.80
2019-05-22T17:36:31.809Z,72.70
2019-05-22T17:39:03.693Z,72.20
2019-05-22T17:41:36.073Z,71.10
2019-05-22T17:44:09.057Z,71.60
2019-05-22T17:46:43.075Z,71.80
2019-05-22T17:49:15.657Z,71.40
2019-05-22T17:51:46.805Z,72.10
2019-05-22T17:54:19.406Z,72.00
2019-05-22T17:56:50.331Z,71.20
2019-05-22T17:59:20.697Z,72.40
2019-05-22T18:01:52.425Z,71.60
2019-05-22T18:04:23.738Z,71.70
2019-05-22T18:06:54.925Z,70.40
2019-05-22T18:09:25.822Z,70.40
2019-05-22T18:11:56.744Z,70.30
2019-05-22T18:14:27.971Z,71.10
2019-05-22T18:16:59.698Z,71.30
2019-05-22T18:19:30.248Z,72.50
2019-05-22T18:22:01.807Z,73.00
2019-05-22T18:24:32.298Z,73.60
2019-05-22T18:27:03.476Z,74.60
2019-05-22T18:29:33.732Z,75.20
2019-05-22T18:32:07.024Z,76.30
2019-05-22T18:34:37.349Z,75.70
2019-05-22T18:37:07.825Z,76.20
2019-05-22T18:39:40.886Z,76.60
2019-05-22T18:42:14.274Z,76.60
2019-05-22T18:44:45.253Z,77.10
2019-05-22T18:47:16.562Z,77.40
2019-05-22T18:49:47.656Z,77.80
2019-05-22T18:52:19.482Z,78.10
2019-05-22T18:54:50.714Z,78.90
2019-05-22T18:57:22.792Z,79.20
2019-05-22T19:00:00.417Z,79.90
2019-05-22T19:02:26.940Z,80.90
2019-05-22T19:04:58.504Z,81.70
2019-05-22T19:07:30.256Z,81.40
2019-05-22T19:10:01.163Z,81.60
2019-05-22T19:12:33.749Z,82.40
2019-05-22T19:15:05.342Z,82.90
2019-05-22T19:17:36.486Z,83.70
2019-05-22T19:20:08.253Z,85.20
2019-05-22T19:22:38.780Z,87.20
2019-05-22T19:25:11.168Z,87.30
2019-05-22T19:27:42.269Z,88.10
2019-05-22T19:30:16.110Z,89.60
2019-05-22T19:32:47.897Z,90.20
2019-05-22T19:35:19.441Z,90.80
2019-05-22T19:37:52.042Z,91.40
2019-05-22T19:40:23.997Z,91.90
2019-05-22T19:42:56.028Z,92.30
2019-05-22T19:45:30.889Z,92.60
2019-05-22T19:48:02.494Z,92.80
2019-05-22T19:50:35.135Z,93.10
2019-05-22T19:53:18.193Z,93.40
2019-05-22T19:55:41.526Z,93.50
2019-05-22T19:58:15.756Z,93.70
2019-05-22T20:00:47.939Z,94.10
2019-05-22T20:03:23.359Z,94.60
2019-05-22T20:05:54.318Z,95.10
2019-05-22T20:08:26.907Z,95.60
2019-05-22T20:10:57.651Z,96.00
2019-05-22T20:13:29.537Z,96.50
2019-05-22T20:16:00.551Z,97.10
2019-05-22T20:18:33.129Z,97.90
2019-05-22T20:21:03.775Z,98.10
2019-05-22T20:23:37.072Z,98.60
2019-05-22T20:26:08.833Z,99.20
2019-05-22T20:28:40.103Z,99.60
2019-05-22T20:31:11.031Z,99.90
2019-05-22T20:33:42.270Z,99.90
2019-05-22T20:36:14.629Z,99.90
2019-05-22T20:38:45.999Z,99.90
2019-05-22T20:41:17.131Z,99.90
2019-05-22T20:43:50.557Z,99.90
2019-05-22T20:46:22.159Z,99.90
2019-05-22T20:48:55.445Z,99.90
2019-05-22T20:51:27.063Z,99.90
2019-05-22T20:53:58.693Z,99.90
2019-05-22T20:56:31.619Z,99.90
2019-05-22T20:59:04.409Z,99.90
2019-05-22T21:01:36.480Z,99.90
2019-05-22T21:04:11.652Z,99.90
2019-05-22T21:06:59.099Z,99.90
2019-05-22T21:09:29.915Z,99.90
2019-05-22T21:12:03.492Z,99.90
2019-05-22T21:14:34.238Z,99.90
2019-05-22T21:17:05.849Z,99.90
2019-05-22T21:19:38.370Z,99.90
2019-05-22T21:22:12.020Z,99.90
2019-05-22T21:24:43.320Z,99.90
2019-05-22T21:27:16.383Z,99.90
2019-05-22T21:29:47.838Z,99.90
2019-05-22T21:32:19.755Z,99.90
2019-05-22T21:34:51.814Z,99.90
2019-05-22T21:37:24.353Z,99.90
2019-05-22T21:39:55.589Z,99.90
2019-05-22T21:42:26.641Z,99.90
2019-05-22T21:44:57.571Z,99.90
2019-05-22T21:47:29.172Z,99.90
2019-05-22T21:50:01.207Z,99.90
2019-05-22T21:52:34.928Z,99.90
2019-05-22T21:55:09.189Z,99.90
2019-05-22T21:57:40.790Z,99.90
2019-05-22T22:00:16.740Z,99.90
2019-05-22T22:02:51.439Z,99.90
2019-05-22T22:05:23.950Z,99.90
2019-05-22T22:07:55.586Z,99.90
2019-05-22T22:10:27.547Z,99.90
2019-05-22T22:12:58.607Z,99.90
2019-05-22T22:15:30.044Z,99.90
2019-05-22T22:18:02.016Z,99.90
2019-05-22T22:20:34.106Z,99.90
2019-05-22T22:23:06.776Z,99.90
2019-05-22T22:25:40.064Z,99.90
2019-05-22T22:28:12.831Z,99.90
2019-05-22T22:30:48.716Z,99.90
2019-05-22T22:33:24.498Z,99.90
2019-05-22T22:35:57.043Z,99.90
2019-05-22T22:38:28.402Z,99.90
2019-05-22T22:41:00.550Z,99.90
2019-05-22T22:43:34.468Z,99.90
2019-05-22T22:46:28.459Z,99.90
2019-05-22T22:49:00.891Z,99.90
2019-05-22T22:51:32.415Z,99.90
2019-05-22T22:54:06.653Z,99.90
2019-05-22T22:56:39.634Z,99.90
2019-05-22T22:59:12.814Z,99.90
2019-05-22T23:01:47.424Z,99.90
2019-05-22T23:04:20.553Z,99.90
2019-05-22T23:06:53.216Z,99.90
2019-05-22T23:09:25.611Z,99.90
2019-05-22T23:12:00.422Z,99.90
2019-05-22T23:14:31.575Z,99.90
2019-05-22T23:17:04.363Z,99.90
2019-05-22T23:19:40.740Z,99.90
2019-05-22T23:22:28.165Z,99.90
2019-05-22T23:25:00.434Z,99.90
2019-05-22T23:27:35.169Z,99.90
2019-05-22T23:30:08.361Z,99.90
2019-05-22T23:32:42.066Z,99.90
2019-05-22T23:35:14.310Z,99.90
2019-05-22T23:37:47.135Z,99.90
2019-05-22T23:40:25.813Z,99.90
2019-05-22T23:42:59.564Z,99.90
2019-05-22T23:45:30.820Z,99.90
2019-05-22T23:48:09.203Z,99.90
2019-05-22T23:50:40.153Z,99.90
2019-05-22T23:53:13.479Z,99.90
2019-05-22T23:55:46.061Z,99.90
2019-05-22T23:58:19.987Z,99.90
